Time;durP1;ratioP1;P1;durP2;ratioP2;P2;SDS_P1;SDS_P2;PMS_P1;PMS_P2;Temp;Humidity;BMP_temperature;BMP_pressure;BME280_temperature;BME280_humidity;BME280_pressure;Samples;Min_cycle;Max_cycle;Signal;HPM_P1;HPM_P2
2022/05/12 00:02:05;;;;;;;4.82;1.10;;;13.00;99.90;;;;;;5084406;28;20044;-62
2022/05/12 00:04:32;;;;;;;5.03;1.25;;;13.00;99.90;;;;;;5081558;28;20419;-63
2022/05/12 00:06:58;;;;;;;4.88;1.02;;;13.00;99.90;;;;;;5078856;28;20513;-62
2022/05/12 00:09:25;;;;;;;4.60;1.23;;;13.00;99.90;;;;;;5079635;28;20101;-63
2022/05/12 00:11:50;;;;;;;3.88;1.10;;;12.90;99.90;;;;;;5079408;28;20052;-63
2022/05/12 00:14:16;;;;;;;7.30;1.27;;;12.90;99.90;;;;;;5080620;28;20036;-62
2022/05/12 00:16:42;;;;;;;4.00;1.00;;;12.90;99.90;;;;;;5086264;28;20046;-62
2022/05/12 00:19:07;;;;;;;3.20;0.85;;;12.90;99.90;;;;;;5081330;28;20047;-62
2022/05/12 00:21:33;;;;;;;4.53;1.00;;;12.80;99.90;;;;;;5080410;28;20084;-62
2022/05/12 00:23:59;;;;;;;4.00;1.05;;;12.80;99.90;;;;;;5081429;28;20064;-62
2022/05/12 00:26:31;;;;;;;3.03;1.08;;;12.80;99.90;;;;;;5083406;28;20041;-62
2022/05/12 00:28:59;;;;;;;3.45;0.88;;;12.80;99.90;;;;;;5080810;28;20049;-62
2022/05/12 00:31:25;;;;;;;4.55;1.10;;;12.80;99.90;;;;;;5086812;28;20052;-63
2022/05/12 00:33:51;;;;;;;3.15;0.90;;;12.80;99.90;;;;;;5083562;28;20051;-63
2022/05/12 00:36:17;;;;;;;4.30;0.90;;;12.70;99.90;;;;;;5079439;28;20046;-62
2022/05/12 00:38:42;;;;;;;2.80;1.02;;;12.60;99.90;;;;;;5084950;28;21709;-62
2022/05/12 00:41:09;;;;;;;5.55;1.08;;;12.60;99.90;;;;;;5086111;28;20945;-63
2022/05/12 00:43:39;;;;;;;6.57;1.17;;;12.50;99.90;;;;;;5082407;28;20039;-62
2022/05/12 00:46:26;;;;;;;3.80;0.90;;;12.60;99.90;;;;;;5086170;28;20044;-63
2022/05/12 00:48:53;;;;;;;5.00;0.90;;;12.50;99.90;;;;;;5086671;28;20040;-62
2022/05/12 00:51:32;;;;;;;2.92;0.80;;;12.50;99.90;;;;;;5085157;28;20099;-62
2022/05/12 00:54:02;;;;;;;4.03;1.00;;;12.50;99.90;;;;;;5084975;28;20573;-62
2022/05/12 00:56:29;;;;;;;5.15;1.00;;;12.50;99.90;;;;;;5087694;28;20051;-62
2022/05/12 00:59:02;;;;;;;3.65;1.00;;;12.50;99.90;;;;;;5088152;28;20084;-63
2022/05/12 01:01:28;;;;;;;1.80;0.80;;;12.50;99.90;;;;;;5087856;28;20113;-62
2022/05/12 01:03:58;;;;;;;3.95;0.90;;;12.40;99.90;;;;;;5088356;28;20386;-62
2022/05/12 01:06:24;;;;;;;3.25;0.90;;;12.40;99.90;;;;;;5073800;28;20420;-63
2022/05/12 01:08:50;;;;;;;3.03;1.13;;;12.40;99.90;;;;;;5078786;28;20036;-63
2022/05/12 01:11:18;;;;;;;3.50;1.02;;;12.50;99.90;;;;;;5080869;28;20044;-63
2022/05/12 01:13:51;;;;;;;2.53;0.80;;;12.60;99.90;;;;;;5083649;28;20072;-63
2022/05/12 01:16:59;;;;;;;3.28;0.95;;;12.60;99.90;;;;;;5086923;28;20135;-63
2022/05/12 01:19:35;;;;;;;3.15;1.02;;;12.60;99.90;;;;;;5062107;28;20530;-63
2022/05/12 01:22:02;;;;;;;3.28;1.13;;;12.50;99.90;;;;;;5074236;28;20053;-63
2022/05/12 01:24:38;;;;;;;3.45;1.23;;;12.50;99.90;;;;;;5083619;28;20101;-63
2022/05/12 01:27:20;;;;;;;3.75;1.00;;;12.50;99.90;;;;;;5085894;28;20088;-63
2022/05/12 01:29:47;;;;;;;4.70;1.10;;;12.40;99.90;;;;;;5085138;28;20072;-63
2022/05/12 01:32:13;;;;;;;3.78;1.05;;;12.40;99.90;;;;;;5082321;28;20032;-62
2022/05/12 01:34:39;;;;;;;7.10;1.27;;;12.40;99.90;;;;;;5080580;28;20638;-64
2022/05/12 01:37:04;;;;;;;5.63;1.30;;;12.40;99.90;;;;;;5084123;28;20405;-63
2022/05/12 01:39:30;;;;;;;5.03;1.20;;;12.40;99.90;;;;;;5074861;28;20177;-62
2022/05/12 01:41:56;;;;;;;4.95;1.05;;;12.50;99.90;;;;;;5079024;28;20056;-63
2022/05/12 01:44:21;;;;;;;5.28;1.20;;;12.50;99.90;;;;;;5082877;28;20047;-63
2022/05/12 01:46:48;;;;;;;7.18;1.40;;;12.50;99.90;;;;;;5077198;28;20040;-65
2022/05/12 01:49:14;;;;;;;4.60;1.15;;;12.60;99.90;;;;;;5082435;28;20124;-62
2022/05/12 01:51:39;;;;;;;7.30;1.30;;;12.60;99.90;;;;;;5085755;28;20510;-62
2022/05/12 01:54:05;;;;;;;5.43;1.33;;;12.60;99.90;;;;;;5080059;28;20044;-64
2022/05/12 01:56:31;;;;;;;7.07;1.27;;;12.50;99.90;;;;;;5087345;28;20052;-63
2022/05/12 01:58:56;;;;;;;6.10;1.20;;;12.50;99.90;;;;;;5081219;28;20175;-63
2022/05/12 02:01:22;;;;;;;4.80;1.40;;;12.50;99.90;;;;;;5084092;28;20036;-64
2022/05/12 02:03:47;;;;;;;6.60;1.33;;;12.50;99.90;;;;;;5079641;28;20394;-62
2022/05/12 02:06:13;;;;;;;6.90;1.33;;;12.50;99.90;;;;;;5077757;28;20036;-62
2022/05/12 02:08:38;;;;;;;5.75;1.30;;;12.50;99.90;;;;;;5083288;28;20422;-64
2022/05/12 02:11:04;;;;;;;3.80;0.98;;;12.50;99.90;;;;;;5076942;28;20050;-63
2022/05/12 02:13:29;;;;;;;5.50;1.23;;;12.40;99.90;;;;;;5079703;28;20462;-62
2022/05/12 02:15:57;;;;;;;7.90;1.30;;;12.40;99.90;;;;;;5083548;28;20051;-63
2022/05/12 02:18:24;;;;;;;5.32;1.40;;;12.40;99.90;;;;;;5086804;28;20052;-62
2022/05/12 02:20:50;;;;;;;4.80;1.23;;;12.40;99.90;;;;;;5081926;28;20044;-63
2022/05/12 02:23:16;;;;;;;5.63;1.58;;;12.40;99.90;;;;;;5082942;28;20530;-63
2022/05/12 02:25:42;;;;;;;5.43;1.20;;;12.40;99.90;;;;;;5084408;28;20040;-63
2022/05/12 02:28:08;;;;;;;7.65;1.20;;;12.30;99.90;;;;;;5085887;28;20096;-62
2022/05/12 02:30:34;;;;;;;5.00;1.40;;;12.40;99.90;;;;;;5078126;28;20056;-64
2022/05/12 02:33:00;;;;;;;10.27;1.88;;;12.30;99.90;;;;;;5077308;28;20043;-64
2022/05/12 02:35:27;;;;;;;6.72;1.50;;;12.30;99.90;;;;;;5081759;28;20032;-64
2022/05/12 02:37:53;;;;;;;6.05;1.50;;;12.30;99.90;;;;;;5086649;28;20040;-63
2022/05/12 02:40:21;;;;;;;7.07;1.50;;;12.20;99.90;;;;;;5079502;28;20352;-63
2022/05/12 02:42:46;;;;;;;8.00;1.63;;;12.20;99.90;;;;;;5085499;28;20355;-63
2022/05/12 02:45:13;;;;;;;7.80;1.92;;;12.20;99.90;;;;;;5076646;28;20043;-62
2022/05/12 02:47:39;;;;;;;7.15;1.50;;;12.20;99.90;;;;;;5084822;28;20040;-62
2022/05/12 02:50:06;;;;;;;9.50;2.38;;;12.20;99.90;;;;;;5080622;28;20044;-65
2022/05/12 02:52:32;;;;;;;9.65;1.80;;;12.20;99.90;;;;;;5081024;28;20128;-62
2022/05/12 02:54:57;;;;;;;7.47;1.77;;;12.20;99.90;;;;;;5087489;28;20477;-62
2022/05/12 02:57:23;;;;;;;7.75;2.20;;;12.20;99.90;;;;;;5085283;28;20047;-62
2022/05/12 02:59:48;;;;;;;7.93;2.00;;;12.20;99.90;;;;;;5079112;28;20044;-62
2022/05/12 03:02:14;;;;;;;6.75;1.70;;;12.20;99.90;;;;;;5082082;28;20406;-63
2022/05/12 03:04:39;;;;;;;7.97;1.80;;;12.20;99.90;;;;;;5081948;28;20074;-62
2022/05/12 03:07:05;;;;;;;7.40;1.60;;;12.20;99.90;;;;;;5072074;28;20222;-63
2022/05/12 03:09:31;;;;;;;7.65;1.75;;;12.10;99.90;;;;;;5082393;28;20044;-63
2022/05/12 03:11:56;;;;;;;9.70;2.22;;;12.10;99.90;;;;;;5084980;28;20045;-62
2022/05/12 03:14:22;;;;;;;5.97;2.00;;;12.10;99.90;;;;;;5079788;28;20231;-63
2022/05/12 03:16:50;;;;;;;6.22;1.60;;;12.00;99.90;;;;;;5080391;28;20149;-63
2022/05/12 03:19:16;;;;;;;10.02;2.53;;;12.00;99.90;;;;;;5085644;28;20044;-62
2022/05/12 03:21:41;;;;;;;7.22;1.83;;;12.00;99.90;;;;;;5088257;28;20123;-63
2022/05/12 03:24:07;;;;;;;8.15;2.03;;;12.00;99.90;;;;;;5083377;28;20375;-63
2022/05/12 03:26:33;;;;;;;6.05;2.17;;;12.00;99.90;;;;;;5085103;28;20473;-63
2022/05/12 03:28:58;;;;;;;6.25;1.98;;;11.90;99.90;;;;;;5079432;28;20124;-63
2022/05/12 03:31:24;;;;;;;7.95;2.05;;;11.90;99.90;;;;;;5082741;28;20036;-63
2022/05/12 03:33:49;;;;;;;10.00;2.00;;;11.80;99.90;;;;;;5086902;28;20043;-63
2022/05/12 03:36:16;;;;;;;8.10;2.30;;;11.80;99.90;;;;;;5083833;28;20316;-64
2022/05/12 03:38:44;;;;;;;8.13;2.13;;;11.80;99.90;;;;;;5082545;28;20085;-63
2022/05/12 03:41:10;;;;;;;6.28;2.10;;;11.80;99.90;;;;;;5085553;28;20039;-63
2022/05/12 03:46:20;;;;;;;10.02;2.47;;;11.70;99.90;;;;;;5082687;28;20044;-63
2022/05/12 03:48:46;;;;;;;10.65;2.53;;;11.70;99.90;;;;;;5081205;28;20359;-62
2022/05/12 03:51:12;;;;;;;9.98;2.28;;;11.60;99.90;;;;;;5078653;28;20409;-63
2022/05/12 03:53:38;;;;;;;9.27;3.00;;;11.60;99.90;;;;;;5078456;28;20102;-62
2022/05/12 03:56:05;;;;;;;8.75;2.88;;;11.60;99.90;;;;;;5086016;28;20115;-62
2022/05/12 03:58:31;;;;;;;9.40;2.70;;;11.60;99.90;;;;;;5083189;28;20056;-62
2022/05/12 04:00:57;;;;;;;9.63;3.03;;;11.60;99.90;;;;;;5079305;28;20049;-62
2022/05/12 04:03:23;;;;;;;9.57;3.38;;;11.60;99.90;;;;;;5075415;28;20094;-62
2022/05/12 04:05:49;;;;;;;10.00;3.47;;;11.60;99.90;;;;;;5082214;28;20059;-62
2022/05/12 04:08:15;;;;;;;8.85;3.67;;;11.50;99.90;;;;;;5082326;28;20135;-64
2022/05/12 04:10:40;;;;;;;11.15;4.35;;;11.50;99.90;;;;;;5072752;28;20080;-63
2022/05/12 04:13:07;;;;;;;7.82;3.55;;;11.60;99.90;;;;;;5077394;28;20382;-62
2022/05/12 04:15:32;;;;;;;9.05;4.30;;;11.70;99.90;;;;;;5079771;28;20398;-64
2022/05/12 04:18:00;;;;;;;11.52;5.03;;;11.70;99.90;;;;;;5078103;28;20470;-63
2022/05/12 04:20:28;;;;;;;10.18;4.50;;;11.70;99.90;;;;;;5083309;28;20401;-63
2022/05/12 04:22:54;;;;;;;9.43;4.47;;;11.80;99.90;;;;;;5083034;28;20050;-62
2022/05/12 04:25:20;;;;;;;8.50;4.13;;;11.80;99.90;;;;;;5075835;28;20040;-63
2022/05/12 04:27:46;;;;;;;9.30;4.20;;;11.90;99.90;;;;;;5076296;28;20134;-62
2022/05/12 04:30:14;;;;;;;12.43;4.88;;;11.90;99.90;;;;;;5074590;28;20529;-62
2022/05/12 04:32:41;;;;;;;8.35;4.05;;;11.90;99.90;;;;;;5084687;28;20384;-61
2022/05/12 04:35:11;;;;;;;8.18;4.55;;;11.80;99.90;;;;;;5080083;28;20044;-62
2022/05/12 04:37:37;;;;;;;10.80;4.28;;;11.90;99.90;;;;;;5079798;28;20040;-62
2022/05/12 04:40:16;;;;;;;9.13;4.47;;;11.90;99.90;;;;;;5076375;28;20064;-63
2022/05/12 04:42:41;;;;;;;9.27;4.20;;;11.90;99.90;;;;;;5080503;28;20086;-62
2022/05/12 04:45:08;;;;;;;10.88;4.80;;;11.90;99.90;;;;;;5083274;28;20044;-62
2022/05/12 04:47:35;;;;;;;9.10;4.50;;;11.90;99.90;;;;;;5076375;28;20470;-61
2022/05/12 04:50:01;;;;;;;10.68;4.22;;;11.90;99.90;;;;;;5080682;28;20086;-63
2022/05/12 04:52:27;;;;;;;14.90;4.20;;;11.90;99.90;;;;;;5082464;28;20032;-63
2022/05/12 04:54:55;;;;;;;9.10;3.97;;;11.90;99.90;;;;;;5075617;28;20059;-63
2022/05/12 04:57:22;;;;;;;9.95;3.90;;;12.00;99.90;;;;;;5087464;28;20343;-62
2022/05/12 04:59:51;;;;;;;8.73;3.95;;;12.00;99.90;;;;;;5083880;28;20067;-63
2022/05/12 05:02:17;;;;;;;8.93;3.70;;;12.10;99.90;;;;;;5083340;28;20452;-63
2022/05/12 05:04:43;;;;;;;11.45;4.30;;;12.20;99.90;;;;;;5082395;28;20044;-62
2022/05/12 05:07:10;;;;;;;10.55;3.80;;;12.30;99.90;;;;;;5073297;28;20151;-63
2022/05/12 05:09:36;;;;;;;12.18;4.05;;;12.40;99.90;;;;;;5082032;28;20565;-63
2022/05/12 05:12:02;;;;;;;8.00;3.88;;;12.40;99.90;;;;;;5082024;28;20059;-64
2022/05/12 05:14:28;;;;;;;8.63;4.13;;;12.50;99.90;;;;;;5090605;28;20362;-63
2022/05/12 05:16:53;;;;;;;9.30;4.20;;;12.60;99.90;;;;;;5085510;28;20036;-63
2022/05/12 05:19:19;;;;;;;8.25;3.92;;;12.70;99.90;;;;;;5085544;28;20051;-64
2022/05/12 05:21:45;;;;;;;13.32;5.13;;;12.80;99.90;;;;;;5079759;28;20043;-63
2022/05/12 05:24:10;;;;;;;8.68;4.47;;;12.90;99.90;;;;;;5087315;28;20058;-63
2022/05/12 05:26:36;;;;;;;8.15;4.18;;;13.10;99.90;;;;;;5076964;28;20131;-64
2022/05/12 05:29:01;;;;;;;11.82;4.63;;;13.10;99.90;;;;;;5090444;28;20044;-65
2022/05/12 05:31:27;;;;;;;9.70;4.28;;;13.20;99.90;;;;;;5079473;28;20574;-63
2022/05/12 05:33:53;;;;;;;11.20;4.75;;;13.30;99.90;;;;;;5086934;28;20185;-63
2022/05/12 05:36:19;;;;;;;10.98;4.40;;;13.50;99.90;;;;;;5085091;28;20128;-63
2022/05/12 05:38:45;;;;;;;12.00;4.90;;;13.50;99.90;;;;;;5082494;28;20127;-64
2022/05/12 05:41:11;;;;;;;13.50;4.72;;;13.70;99.90;;;;;;5078177;28;20436;-65
2022/05/12 05:43:37;;;;;;;11.40;4.80;;;13.70;99.90;;;;;;5085172;28;20043;-64
2022/05/12 05:46:03;;;;;;;11.18;5.07;;;13.90;99.90;;;;;;5088913;28;20147;-64
2022/05/12 05:48:29;;;;;;;11.05;4.63;;;14.00;99.90;;;;;;5088623;28;20081;-63
2022/05/12 05:53:39;;;;;;;12.55;4.88;;;14.20;99.90;;;;;;5089369;28;20493;-64
2022/05/12 05:56:07;;;;;;;15.88;5.03;;;14.30;99.90;;;;;;5089845;28;20044;-64
2022/05/12 05:58:34;;;;;;;11.50;5.43;;;14.40;99.90;;;;;;5086130;28;20040;-63
2022/05/12 06:01:00;;;;;;;10.63;4.90;;;14.50;99.90;;;;;;5089003;28;20051;-64
2022/05/12 06:03:26;;;;;;;9.95;4.13;;;14.50;99.90;;;;;;5085896;28;20074;-64
2022/05/12 06:05:53;;;;;;;10.15;4.25;;;14.60;99.90;;;;;;5089825;28;20458;-63
2022/05/12 06:08:20;;;;;;;9.65;4.82;;;14.70;99.90;;;;;;5084955;28;20046;-63
2022/05/12 06:10:46;;;;;;;10.63;4.60;;;14.70;99.90;;;;;;5084438;28;20036;-63
2022/05/12 06:13:13;;;;;;;10.02;4.63;;;14.70;99.90;;;;;;5090177;28;20040;-65
2022/05/12 06:15:39;;;;;;;13.63;4.40;;;14.80;99.90;;;;;;5088394;28;20454;-64
2022/05/12 06:18:07;;;;;;;10.68;4.05;;;14.90;99.90;;;;;;5085517;28;20372;-65
2022/05/12 06:20:32;;;;;;;9.63;4.15;;;14.90;99.90;;;;;;5088980;28;20032;-64
2022/05/12 06:22:58;;;;;;;12.63;4.15;;;14.90;99.90;;;;;;5086874;28;20118;-63
2022/05/12 06:25:24;;;;;;;8.82;3.50;;;14.90;99.90;;;;;;5088229;28;20075;-63
2022/05/12 06:27:51;;;;;;;9.00;3.63;;;14.90;99.90;;;;;;5090286;28;20119;-63
2022/05/12 06:30:18;;;;;;;11.77;3.70;;;15.00;99.90;;;;;;5090770;28;20430;-63
2022/05/12 06:32:44;;;;;;;9.65;3.03;;;15.10;99.90;;;;;;5089763;28;20845;-63
2022/05/12 06:35:13;;;;;;;9.27;3.08;;;15.20;99.90;;;;;;5088353;28;20488;-63
2022/05/12 06:37:39;;;;;;;8.35;2.95;;;15.20;99.90;;;;;;5090256;28;20362;-64
2022/05/12 06:40:05;;;;;;;7.68;2.70;;;15.40;99.90;;;;;;5071081;28;20131;-63
2022/05/12 06:42:31;;;;;;;6.75;2.30;;;15.40;99.90;;;;;;5071712;28;20048;-63
2022/05/12 06:44:57;;;;;;;6.57;2.35;;;15.40;99.90;;;;;;5070914;28;20047;-63
2022/05/12 06:47:23;;;;;;;7.15;2.22;;;15.50;99.90;;;;;;5080741;28;20044;-63
2022/05/12 06:49:52;;;;;;;13.25;2.92;;;15.70;99.90;;;;;;5071863;28;20189;-63
2022/05/12 06:52:18;;;;;;;8.18;2.72;;;15.70;99.90;;;;;;5089933;28;20055;-63
2022/05/12 06:54:45;;;;;;;9.05;3.28;;;15.70;99.90;;;;;;5090382;28;20048;-63
2022/05/12 06:57:12;;;;;;;7.78;2.72;;;15.80;99.90;;;;;;5072920;28;20182;-63
2022/05/12 06:59:39;;;;;;;8.55;2.47;;;15.90;99.90;;;;;;5073465;28;20797;-62
2022/05/12 07:02:06;;;;;;;8.93;2.80;;;16.10;99.90;;;;;;5088095;28;20044;-63
2022/05/12 07:04:32;;;;;;;9.05;2.63;;;16.30;99.90;;;;;;5090832;28;20394;-63
2022/05/12 07:06:58;;;;;;;6.53;2.70;;;16.30;99.90;;;;;;5089238;28;20048;-63
2022/05/12 07:09:24;;;;;;;6.85;2.55;;;16.40;99.90;;;;;;5090036;28;20119;-64
2022/05/12 07:11:50;;;;;;;9.35;2.50;;;16.40;99.90;;;;;;5090325;28;20040;-63
2022/05/12 07:14:17;;;;;;;10.80;2.90;;;16.50;99.90;;;;;;5088506;28;20047;-63
2022/05/12 07:16:44;;;;;;;6.40;2.58;;;16.70;99.90;;;;;;5084598;28;20040;-62
2022/05/12 07:19:14;;;;;;;8.73;2.75;;;16.70;99.90;;;;;;5070683;28;20106;-63
2022/05/12 07:27:17;;;;;;;8.73;2.00;;;17.00;99.90;;;;;;5087825;28;20082;-63
2022/05/12 07:29:43;;;;;;;8.00;1.90;;;16.80;99.90;;;;;;5087317;28;20143;-64
2022/05/12 07:32:09;;;;;;;7.95;2.00;;;16.70;99.90;;;;;;5089003;28;20111;-63
2022/05/12 07:34:34;;;;;;;7.07;2.13;;;16.70;99.90;;;;;;5087955;28;20040;-65
2022/05/12 07:37:00;;;;;;;5.78;1.70;;;16.80;99.90;;;;;;5086752;28;20507;-64
2022/05/12 07:39:29;;;;;;;7.40;2.17;;;17.00;99.90;;;;;;5090330;28;20048;-64
2022/05/12 07:41:59;;;;;;;7.72;2.03;;;17.10;99.90;;;;;;5084510;28;20119;-66
2022/05/12 07:44:32;;;;;;;6.10;1.95;;;17.30;99.90;;;;;;5081439;28;20048;-64
2022/05/12 07:47:02;;;;;;;9.32;2.30;;;17.40;99.90;;;;;;5071404;28;20055;-64
2022/05/12 07:49:32;;;;;;;8.15;2.38;;;17.50;99.90;;;;;;5087360;28;20044;-64
2022/05/12 07:51:59;;;;;;;11.45;2.47;;;17.60;99.90;;;;;;5080067;28;20111;-64
2022/05/12 07:54:25;;;;;;;8.55;2.15;;;17.70;99.90;;;;;;5078809;28;20042;-65
2022/05/12 07:56:51;;;;;;;8.45;2.15;;;17.90;99.90;;;;;;5089816;28;20052;-63
2022/05/12 07:59:17;;;;;;;7.63;2.10;;;17.90;99.90;;;;;;5090203;28;20101;-63
2022/05/12 08:01:43;;;;;;;8.05;2.47;;;18.00;99.90;;;;;;5086023;28;20086;-64
2022/05/12 08:04:09;;;;;;;8.23;2.22;;;18.10;99.90;;;;;;5078650;28;20059;-64
2022/05/12 08:06:35;;;;;;;7.47;2.13;;;18.20;99.90;;;;;;5088005;28;20139;-66
2022/05/12 08:09:01;;;;;;;6.60;2.15;;;18.40;99.90;;;;;;5088050;28;20075;-63
2022/05/12 08:11:27;;;;;;;8.48;2.47;;;18.20;99.90;;;;;;5084717;28;20047;-62
2022/05/12 08:13:53;;;;;;;6.78;2.10;;;18.30;99.90;;;;;;5073583;28;20036;-64
2022/05/12 08:16:21;;;;;;;11.38;2.20;;;18.40;99.90;;;;;;5089195;28;20040;-65
2022/05/12 08:18:49;;;;;;;7.20;2.00;;;18.50;99.90;;;;;;5089445;28;20190;-62
2022/05/12 08:21:16;;;;;;;7.32;2.13;;;18.50;99.90;;;;;;5088559;28;20040;-63
2022/05/12 08:23:42;;;;;;;6.40;2.03;;;18.60;99.90;;;;;;5088097;28;20044;-65
2022/05/12 08:26:08;;;;;;;5.65;1.80;;;18.70;99.90;;;;;;5086864;28;20044;-64
2022/05/12 08:28:34;;;;;;;7.30;2.17;;;19.00;99.90;;;;;;5086950;28;20493;-63
2022/05/12 08:30:59;;;;;;;5.45;1.90;;;19.20;99.20;;;;;;5088608;28;20044;-64
2022/05/12 08:33:26;;;;;;;6.30;1.92;;;19.00;98.40;;;;;;5086426;28;20044;-63
2022/05/12 08:35:52;;;;;;;9.65;2.30;;;18.80;97.80;;;;;;5085583;28;20044;-64
2022/05/12 08:38:19;;;;;;;8.07;1.83;;;18.80;98.60;;;;;;5081275;28;20036;-63
2022/05/12 08:41:21;;;;;;;8.27;1.92;;;18.90;98.10;;;;;;5089706;28;20044;-65
2022/05/12 08:43:56;;;;;;;6.90;2.00;;;18.80;96.30;;;;;;5086359;28;20059;-64
2022/05/12 08:46:53;;;;;;;7.78;2.00;;;18.70;97.50;;;;;;5086551;28;20044;-64
2022/05/12 08:49:30;;;;;;;5.00;1.80;;;18.40;96.20;;;;;;5093789;28;20119;-64
2022/05/12 08:52:21;;;;;;;8.70;2.00;;;18.50;97.20;;;;;;5091619;28;20051;-64
2022/05/12 08:54:51;;;;;;;8.88;2.08;;;18.40;97.20;;;;;;5077892;28;20072;-64
2022/05/12 08:57:32;;;;;;;8.32;2.00;;;18.30;97.80;;;;;;5082990;28;20117;-63
2022/05/12 09:00:01;;;;;;;6.97;2.00;;;18.20;96.60;;;;;;5092066;28;20193;-64
2022/05/12 09:02:42;;;;;;;8.80;2.15;;;18.10;98.10;;;;;;5092344;28;20074;-64
2022/05/12 09:05:12;;;;;;;6.82;1.80;;;18.30;97.50;;;;;;5091039;28;20056;-64
2022/05/12 09:08:06;;;;;;;7.90;2.28;;;18.10;96.80;;;;;;5090592;28;20335;-63
2022/05/12 09:10:57;;;;;;;6.80;1.80;;;18.00;96.00;;;;;;5087675;28;20090;-64
2022/05/12 09:13:34;;;;;;;6.18;1.77;;;18.20;94.50;;;;;;5092427;28;20134;-63
2022/05/12 09:16:21;;;;;;;6.28;1.70;;;18.20;95.30;;;;;;5079442;28;20098;-64
2022/05/12 09:18:48;;;;;;;5.10;1.50;;;18.40;94.80;;;;;;5088647;28;20109;-64
2022/05/12 09:21:33;;;;;;;6.45;1.77;;;18.50;95.20;;;;;;5077135;28;20124;-64
2022/05/12 09:23:59;;;;;;;;;;;18.70;94.80;;;;;;5085555;28;20449;-63
2022/05/12 09:26:45;;;;;;;9.35;1.70;;;18.60;91.90;;;;;;5084504;28;20351;-64
2022/05/12 09:29:26;;;;;;;6.10;1.63;;;18.50;89.80;;;;;;5090140;28;20457;-65
2022/05/12 09:31:52;;;;;;;6.95;1.83;;;18.70;91.40;;;;;;5091349;28;20052;-64
2022/05/12 09:34:23;;;;;;;6.13;1.73;;;18.80;91.60;;;;;;5092064;28;20044;-63
2022/05/12 09:36:49;;;;;;;7.70;1.60;;;18.80;91.00;;;;;;5091177;28;20572;-63
2022/05/12 09:39:37;;;;;;;5.53;1.48;;;18.90;90.60;;;;;;5078560;28;20210;-63
2022/05/12 09:42:06;;;;;;;5.18;1.70;;;19.00;90.30;;;;;;5092532;28;20164;-65
2022/05/12 09:44:33;;;;;;;5.45;1.77;;;19.20;89.60;;;;;;5093797;28;20051;-64
2022/05/12 09:47:13;;;;;;;6.13;1.58;;;19.20;87.30;;;;;;5078199;28;20048;-64
2022/05/12 09:49:44;;;;;;;6.10;1.60;;;19.10;84.20;;;;;;5072674;28;20083;-64
2022/05/12 09:52:27;;;;;;;5.43;1.52;;;19.10;86.20;;;;;;5086675;28;20036;-64
2022/05/12 09:55:24;;;;;;;4.30;1.38;;;18.80;83.80;;;;;;5091417;28;20143;-63
2022/05/12 09:57:56;;;;;;;4.50;1.30;;;18.70;84.40;;;;;;5056351;28;20067;-64
2022/05/12 10:00:40;;;;;;;3.70;1.05;;;18.60;84.30;;;;;;5091983;28;20119;-63
2022/05/12 10:09:19;;;;;;;6.55;1.70;;;18.80;81.40;;;;;;5071547;28;20063;-62
2022/05/12 10:12:11;;;;;;;6.30;1.70;;;18.90;83.00;;;;;;5073042;28;20044;-62
2022/05/12 10:15:15;;;;;;;8.00;1.70;;;19.00;82.10;;;;;;5078793;28;20516;-63
2022/05/12 10:17:49;;;;;;;6.03;1.70;;;19.20;83.60;;;;;;5091411;28;20044;-63
2022/05/12 10:20:18;;;;;;;6.05;1.52;;;19.50;83.70;;;;;;5092294;28;20055;-64
2022/05/12 10:22:44;;;;;;;5.43;1.40;;;19.50;80.20;;;;;;5088755;28;20465;-64
2022/05/12 10:25:25;;;;;;;7.22;1.65;;;19.50;75.50;;;;;;5091805;28;20115;-63
2022/05/12 10:28:21;;;;;;;6.00;1.50;;;19.40;72.00;;;;;;5091159;28;20055;-62
2022/05/12 10:30:59;;;;;;;5.43;1.65;;;19.30;75.00;;;;;;5090950;28;20072;-63
2022/05/12 10:33:56;;;;;;;5.60;1.70;;;19.40;78.20;;;;;;5089936;28;20048;-61
2022/05/12 10:36:44;;;;;;;5.20;1.88;;;19.50;77.00;;;;;;5090587;28;20133;-62
2022/05/12 10:39:24;;;;;;;4.55;1.50;;;19.70;78.00;;;;;;5087574;28;20104;-62
2022/05/12 10:42:28;;;;;;;5.47;1.73;;;19.70;74.10;;;;;;5091410;28;20044;-63
2022/05/12 10:45:13;;;;;;;3.85;1.38;;;19.60;74.00;;;;;;5070140;28;20110;-63
2022/05/12 10:47:45;;;;;;;;;;;19.70;68.30;;;;;;5072387;28;20036;-63
2022/05/12 10:50:19;;;;;;;5.13;1.55;;;19.60;70.20;;;;;;5086681;28;19920;-63
2022/05/12 10:53:22;;;;;;;5.47;1.70;;;19.70;74.20;;;;;;5089563;28;20589;-62
2022/05/12 10:56:08;;;;;;;7.18;1.60;;;19.90;72.40;;;;;;5090600;28;20078;-62
2022/05/12 10:59:00;;;;;;;4.45;1.27;;;20.00;71.10;;;;;;5089992;28;20126;-62
2022/05/12 11:01:33;;;;;;;6.18;1.92;;;20.00;69.50;;;;;;5089822;28;20066;-63
2022/05/12 11:04:34;;;;;;;6.18;1.60;;;20.00;69.70;;;;;;5091076;28;20054;-64
2022/05/12 11:07:06;;;;;;;7.03;1.67;;;20.30;70.00;;;;;;5090509;28;20497;-63
2022/05/12 11:09:38;;;;;;;6.85;1.73;;;20.30;66.60;;;;;;5087465;28;20044;-63
2022/05/12 11:12:26;;;;;;;4.32;1.38;;;20.30;66.90;;;;;;5085900;28;20134;-63
2022/05/12 11:15:07;;;;;;;4.53;1.35;;;20.40;67.50;;;;;;5069509;28;20110;-63
2022/05/12 11:17:40;;;;;;;3.15;1.10;;;20.50;65.80;;;;;;5078407;28;20078;-63
2022/05/12 11:20:24;;;;;;;5.88;1.40;;;20.60;64.10;;;;;;5086692;28;20064;-63
2022/05/12 11:23:13;;;;;;;5.82;1.20;;;20.40;63.20;;;;;;5085515;28;20051;-62
2022/05/12 11:26:00;;;;;;;5.85;1.20;;;20.50;62.80;;;;;;5088044;28;20044;-63
2022/05/12 11:32:27;;;;;;;6.47;1.60;;;20.20;61.30;;;;;;5086947;28;20503;-63
2022/05/12 11:34:56;;;;;;;4.90;1.25;;;20.10;62.10;;;;;;5069261;28;20421;-62
2022/05/12 11:37:33;;;;;;;5.90;1.50;;;20.30;62.20;;;;;;5067692;28;20869;-63
2022/05/12 11:40:32;;;;;;;4.57;1.10;;;20.20;61.70;;;;;;5076052;28;20097;-63
2022/05/12 11:45:49;;;;;;;3.85;1.20;;;19.70;61.70;;;;;;5071212;28;20131;-63
2022/05/12 11:48:40;;;;;;;2.97;0.95;;;19.50;60.80;;;;;;5087387;28;20574;-64
2022/05/12 11:51:22;;;;;;;3.50;1.00;;;19.50;60.10;;;;;;5086900;28;20074;-63
2022/05/12 11:54:22;;;;;;;4.07;1.13;;;19.80;61.40;;;;;;5082091;28;20062;-62
2022/05/12 11:56:51;;;;;;;4.07;1.00;;;20.00;61.10;;;;;;5070199;28;20490;-63
2022/05/12 11:59:44;;;;;;;5.40;1.10;;;20.00;61.00;;;;;;5068473;28;20040;-63
2022/05/12 12:02:28;;;;;;;2.92;0.98;;;19.90;59.30;;;;;;5068969;28;20365;-63
2022/05/12 12:04:56;;;;;;;3.20;1.00;;;19.80;60.00;;;;;;5086430;28;20567;-63
2022/05/12 12:07:27;;;;;;;3.63;1.10;;;19.80;60.70;;;;;;5087476;28;20060;-63
2022/05/12 12:10:02;;;;;;;3.80;1.08;;;20.20;61.10;;;;;;5088199;28;20122;-63
2022/05/12 12:12:40;;;;;;;2.95;1.10;;;20.50;61.70;;;;;;5088269;28;20070;-63
2022/05/12 12:15:08;;;;;;;4.53;1.17;;;20.70;57.80;;;;;;5087734;28;20040;-63
2022/05/12 12:17:36;;;;;;;3.80;1.48;;;20.80;58.60;;;;;;5069808;28;20070;-63
2022/05/12 12:20:08;;;;;;;3.75;1.30;;;21.00;57.70;;;;;;5072805;28;20032;-64
2022/05/12 12:22:52;;;;;;;5.60;1.42;;;21.20;57.50;;;;;;5084481;28;20052;-63
2022/05/12 12:25:44;;;;;;;5.05;1.30;;;21.50;59.20;;;;;;5086757;28;20485;-63
2022/05/12 12:28:26;;;;;;;4.30;1.15;;;21.60;56.60;;;;;;5074602;28;20033;-63
2022/05/12 12:30:55;;;;;;;4.93;1.35;;;21.80;54.30;;;;;;5080627;28;20047;-63
2022/05/12 12:33:31;;;;;;;3.90;1.30;;;21.80;55.70;;;;;;5084953;28;20052;-63
2022/05/12 12:36:04;;;;;;;4.72;1.20;;;21.90;54.20;;;;;;5087726;28;20052;-63
2022/05/12 12:38:48;;;;;;;4.68;1.40;;;21.90;54.00;;;;;;5087352;28;20149;-63
2022/05/12 12:41:17;;;;;;;5.22;1.20;;;21.90;53.50;;;;;;5087117;28;20542;-63
2022/05/12 12:43:49;;;;;;;4.85;1.48;;;22.00;53.40;;;;;;5087340;28;20080;-62
2022/05/12 12:46:20;;;;;;;4.25;1.50;;;21.70;53.00;;;;;;5086226;28;20110;-63
2022/05/12 12:48:51;;;;;;;5.78;1.75;;;21.70;53.40;;;;;;5086988;28;20135;-63
2022/05/12 12:51:28;;;;;;;5.53;1.63;;;21.60;53.90;;;;;;5068315;28;20094;-64
2022/05/12 12:56:38;;;;;;;5.10;1.30;;;21.50;54.50;;;;;;5087799;28;20147;-63
2022/05/12 12:59:12;;;;;;;6.13;1.30;;;21.70;55.50;;;;;;5084493;28;20051;-63
2022/05/12 13:01:50;;;;;;;2.63;1.20;;;21.90;54.60;;;;;;5087276;28;20505;-63
2022/05/12 13:04:21;;;;;;;4.22;1.00;;;21.90;52.60;;;;;;5087332;28;20048;-63
2022/05/12 13:06:53;;;;;;;5.28;1.20;;;21.90;52.80;;;;;;5087242;28;20040;-63
2022/05/12 13:09:27;;;;;;;8.15;1.67;;;21.90;52.90;;;;;;5086545;28;20036;-62
2022/05/12 13:12:13;;;;;;;5.75;1.40;;;22.00;52.70;;;;;;5087737;28;20074;-64
2022/05/12 13:14:42;;;;;;;5.25;1.42;;;21.80;51.90;;;;;;5086374;28;20119;-64
2022/05/12 13:17:25;;;;;;;4.68;1.42;;;21.70;51.20;;;;;;5086144;28;20040;-62
2022/05/12 13:19:52;;;;;;;5.38;1.30;;;21.90;51.80;;;;;;5078657;28;20052;-63
2022/05/12 13:22:37;;;;;;;3.63;1.13;;;21.90;52.10;;;;;;5066015;28;20062;-63
2022/05/12 13:25:03;;;;;;;3.37;1.40;;;22.10;52.70;;;;;;5066230;28;20454;-66
2022/05/12 13:27:35;;;;;;;4.68;1.20;;;21.60;51.20;;;;;;5067665;28;20080;-64
2022/05/12 13:30:02;;;;;;;6.68;1.30;;;21.40;52.10;;;;;;5071471;28;20156;-63
2022/05/12 13:32:42;;;;;;;5.20;1.63;;;21.30;52.50;;;;;;5088179;28;20040;-63